createdAt,value
2019-02-02T00:01:03.050Z,2.90
2019-02-02T00:03:44.094Z,2.90
2019-02-02T00:06:24.944Z,2.90
2019-02-02T00:09:05.792Z,2.90
2019-02-02T00:11:46.513Z,2.90
2019-02-02T00:14:27.313Z,2.90
2019-02-02T00:17:08.072Z,2.90
2019-02-02T00:19:48.569Z,2.90
2019-02-02T00:22:29.174Z,2.90
2019-02-02T00:25:10.087Z,2.90
2019-02-02T00:27:50.968Z,2.90
2019-02-02T00:30:31.842Z,2.90
2019-02-02T00:33:12.605Z,3.00
2019-02-02T00:35:53.467Z,2.90
2019-02-02T00:38:34.532Z,2.90
2019-02-02T00:41:15.227Z,2.80
2019-02-02T00:43:55.992Z,2.80
2019-02-02T00:46:36.823Z,2.70
2019-02-02T00:49:17.470Z,2.70
2019-02-02T00:51:57.783Z,2.70
2019-02-02T00:54:38.506Z,2.70
2019-02-02T00:57:19.358Z,2.70
2019-02-02T00:59:59.846Z,2.70
2019-02-02T01:02:40.433Z,2.70
2019-02-02T01:05:21.057Z,2.80
2019-02-02T01:08:01.947Z,2.80
2019-02-02T01:10:42.489Z,2.80
2019-02-02T01:13:23.048Z,2.90
2019-02-02T01:16:03.803Z,2.90
2019-02-02T01:18:44.302Z,3.00
2019-02-02T01:21:25.032Z,3.00
2019-02-02T01:24:05.778Z,2.90
2019-02-02T01:26:46.750Z,2.90
2019-02-02T01:29:27.435Z,2.90
2019-02-02T01:32:27.211Z,3.00
2019-02-02T01:35:07.956Z,3.00
2019-02-02T01:37:48.560Z,2.90
2019-02-02T01:40:29.414Z,2.90
2019-02-02T01:43:09.947Z,3.00
2019-02-02T01:45:50.907Z,3.00
2019-02-02T01:48:31.910Z,3.00
2019-02-02T01:51:12.635Z,3.00
2019-02-02T01:53:53.327Z,3.00
2019-02-02T01:56:34.307Z,3.00
2019-02-02T01:59:15.192Z,3.00
2019-02-02T02:01:56.011Z,3.00
2019-02-02T02:04:37.223Z,3.10
2019-02-02T02:07:17.979Z,3.10
2019-02-02T02:09:58.569Z,3.10
2019-02-02T02:12:39.292Z,3.10
2019-02-02T02:15:20.065Z,3.10
2019-02-02T02:18:01.046Z,3.10
2019-02-02T02:20:41.782Z,3.10
2019-02-02T02:23:22.599Z,3.10
2019-02-02T02:26:03.427Z,3.20
2019-02-02T02:28:44.062Z,3.20
2019-02-02T02:31:24.627Z,3.20
2019-02-02T02:34:05.378Z,3.20
2019-02-02T02:36:46.262Z,3.20
2019-02-02T02:39:26.886Z,3.20
2019-02-02T02:42:07.453Z,3.20
2019-02-02T02:44:47.956Z,3.30
2019-02-02T02:47:28.631Z,3.30
2019-02-02T02:50:09.128Z,3.30
2019-02-02T02:52:49.586Z,3.30
2019-02-02T02:55:30.604Z,3.30
2019-02-02T02:58:11.387Z,3.40
2019-02-02T03:00:52.572Z,3.40
2019-02-02T03:03:33.160Z,3.40
2019-02-02T03:06:13.422Z,3.40
2019-02-02T03:08:54.083Z,3.40
2019-02-02T03:11:34.489Z,3.40
2019-02-02T03:14:15.291Z,3.40
2019-02-02T03:16:56.264Z,3.40
2019-02-02T03:19:36.714Z,3.40
2019-02-02T03:22:17.237Z,3.50
2019-02-02T03:24:57.679Z,3.40
2019-02-02T03:27:38.357Z,3.40
2019-02-02T03:30:18.817Z,3.40
2019-02-02T03:32:59.468Z,3.40
2019-02-02T03:35:40.187Z,3.40
2019-02-02T03:38:20.744Z,3.40
2019-02-02T03:41:01.400Z,3.40
2019-02-02T03:43:42.207Z,3.30
2019-02-02T03:46:23.590Z,3.30
2019-02-02T03:49:05.054Z,3.30
2019-02-02T03:51:45.354Z,3.30
2019-02-02T03:54:25.724Z,3.30
2019-02-02T03:57:06.317Z,3.30
2019-02-02T03:59:46.950Z,3.20
2019-02-02T04:02:27.662Z,3.10
2019-02-02T04:05:08.412Z,3.10
2019-02-02T04:07:48.753Z,3.10
2019-02-02T04:10:29.328Z,3.20
2019-02-02T04:13:09.845Z,3.20
2019-02-02T04:15:50.191Z,3.30
2019-02-02T04:18:31.010Z,3.30
2019-02-02T04:21:11.444Z,3.40
2019-02-02T04:23:52.422Z,3.40
2019-02-02T04:26:32.946Z,3.40
2019-02-02T04:29:17.860Z,3.30
2019-02-02T04:31:56.238Z,3.30
2019-02-02T04:34:37.127Z,3.30
2019-02-02T04:37:17.971Z,3.30
2019-02-02T04:39:58.818Z,3.20
2019-02-02T04:42:39.146Z,3.30
2019-02-02T04:45:19.758Z,3.30
2019-02-02T04:48:00.508Z,3.20
2019-02-02T04:50:41.163Z,3.30
2019-02-02T04:53:21.667Z,3.30
2019-02-02T04:56:02.339Z,3.30
2019-02-02T04:58:42.999Z,3.30
2019-02-02T05:01:23.555Z,3.30
2019-02-02T05:04:04.064Z,3.30
2019-02-02T05:06:45.199Z,3.30
2019-02-02T05:09:25.696Z,3.40
2019-02-02T05:12:06.259Z,3.40
2019-02-02T05:14:46.785Z,3.30
2019-02-02T05:17:27.656Z,3.30
2019-02-02T05:20:08.263Z,3.30
2019-02-02T05:22:48.864Z,3.30
2019-02-02T05:25:29.591Z,3.30
2019-02-02T05:28:10.474Z,3.30
2019-02-02T05:30:50.996Z,3.30
2019-02-02T05:33:32.013Z,3.20
2019-02-02T05:36:12.455Z,3.30
2019-02-02T05:38:53.314Z,3.30
2019-02-02T05:41:33.875Z,3.20
2019-02-02T05:44:14.634Z,3.20
2019-02-02T05:46:55.179Z,3.20
2019-02-02T05:49:35.916Z,3.20
2019-02-02T05:52:16.681Z,3.30
2019-02-02T05:54:57.154Z,3.30
2019-02-02T05:57:37.862Z,3.30
2019-02-02T06:00:20.991Z,3.30
2019-02-02T06:03:01.606Z,3.30
2019-02-02T06:05:42.379Z,3.30
2019-02-02T06:08:22.814Z,3.30
2019-02-02T06:11:03.653Z,3.40
2019-02-02T06:13:44.310Z,3.40
2019-02-02T06:16:25.020Z,3.40
2019-02-02T06:19:05.735Z,3.40
2019-02-02T06:21:48.143Z,3.50
2019-02-02T06:24:29.114Z,3.50
2019-02-02T06:27:09.529Z,3.50
2019-02-02T06:29:50.127Z,3.50
2019-02-02T06:32:30.812Z,3.50
2019-02-02T06:35:11.371Z,3.50
2019-02-02T06:37:52.071Z,3.50
2019-02-02T06:40:32.795Z,3.50
2019-02-02T06:43:13.631Z,3.50
2019-02-02T06:45:54.819Z,3.40
2019-02-02T06:48:35.247Z,3.40
2019-02-02T06:51:16.144Z,3.40
2019-02-02T06:53:56.524Z,3.50
2019-02-02T06:56:37.059Z,3.50
2019-02-02T06:59:17.851Z,3.50
2019-02-02T07:01:58.957Z,3.40
2019-02-02T07:04:39.632Z,3.40
2019-02-02T07:07:20.306Z,3.40
2019-02-02T07:10:00.820Z,3.40
2019-02-02T07:12:41.405Z,3.40
2019-02-02T07:15:21.995Z,3.40
2019-02-02T07:18:02.704Z,3.40
2019-02-02T07:20:43.343Z,3.40
2019-02-02T07:23:23.798Z,3.40
2019-02-02T07:26:04.176Z,3.50
2019-02-02T07:28:45.040Z,3.40
2019-02-02T07:31:26.420Z,3.40
2019-02-02T07:34:07.104Z,3.40
2019-02-02T07:36:47.852Z,3.40
2019-02-02T07:39:28.219Z,3.40
2019-02-02T07:42:09.184Z,3.40
2019-02-02T07:44:50.147Z,3.40
2019-02-02T07:47:30.539Z,3.30
2019-02-02T07:50:11.575Z,3.30
2019-02-02T07:52:52.265Z,3.30
2019-02-02T07:55:32.755Z,3.30
2019-02-02T07:58:13.463Z,3.30
2019-02-02T08:00:54.122Z,3.30
2019-02-02T08:03:34.591Z,3.30
2019-02-02T08:06:15.089Z,3.40
2019-02-02T08:08:56.066Z,3.40
2019-02-02T08:11:37.253Z,3.40
2019-02-02T08:14:18.404Z,3.40
2019-02-02T08:16:58.928Z,3.30
2019-02-02T08:19:39.561Z,3.30
2019-02-02T08:22:20.176Z,3.40
2019-02-02T08:25:00.851Z,3.40
2019-02-02T08:27:41.471Z,3.30
2019-02-02T08:30:21.949Z,3.30
2019-02-02T08:33:02.996Z,3.30
2019-02-02T08:35:43.615Z,3.40
2019-02-02T08:38:24.336Z,3.40
2019-02-02T08:41:05.069Z,3.50
2019-02-02T08:43:45.766Z,3.50
2019-02-02T08:46:26.440Z,3.50
2019-02-02T08:49:07.343Z,3.50
2019-02-02T08:51:48.118Z,3.50
2019-02-02T08:54:28.849Z,3.60
2019-02-02T08:57:09.524Z,3.60
2019-02-02T08:59:50.035Z,3.60
2019-02-02T09:02:30.854Z,3.50
2019-02-02T09:05:11.623Z,3.50
2019-02-02T09:07:52.219Z,3.50
2019-02-02T09:10:33.164Z,3.50
2019-02-02T09:13:14.050Z,3.50
2019-02-02T09:15:54.679Z,3.60
2019-02-02T09:18:35.439Z,3.40
2019-02-02T09:21:16.363Z,3.40
2019-02-02T09:23:57.119Z,3.40
2019-02-02T09:26:37.456Z,3.40
2019-02-02T09:29:18.312Z,3.40
2019-02-02T09:31:58.840Z,3.40
2019-02-02T09:34:40.035Z,3.40
2019-02-02T09:37:20.612Z,3.40
2019-02-02T09:40:01.067Z,3.30
2019-02-02T09:42:41.643Z,3.30
2019-02-02T09:45:22.220Z,3.30
2019-02-02T09:48:03.011Z,3.30
2019-02-02T09:50:43.678Z,3.40
2019-02-02T09:53:24.326Z,3.50
2019-02-02T09:56:05.207Z,3.50
2019-02-02T09:58:45.950Z,3.50
2019-02-02T10:01:28.113Z,3.40
2019-02-02T10:04:09.507Z,3.30
2019-02-02T10:06:50.084Z,3.20
2019-02-02T10:09:30.480Z,3.10
2019-02-02T10:12:11.687Z,3.10
2019-02-02T10:14:52.368Z,3.10
2019-02-02T10:17:33.193Z,2.90
2019-02-02T10:20:13.966Z,2.80
2019-02-02T10:22:54.656Z,2.80
2019-02-02T10:25:35.552Z,2.80
2019-02-02T10:28:16.314Z,2.80
2019-02-02T10:30:57.246Z,2.70
2019-02-02T10:33:37.931Z,2.70
2019-02-02T10:36:20.135Z,2.60
2019-02-02T10:39:00.675Z,2.70
2019-02-02T10:41:41.409Z,2.80
2019-02-02T10:44:22.119Z,2.80
2019-02-02T10:47:02.999Z,2.90
2019-02-02T10:49:43.886Z,2.90
2019-02-02T10:52:25.007Z,3.00
2019-02-02T10:55:05.481Z,3.10
2019-02-02T10:57:46.328Z,3.30
2019-02-02T11:00:27.178Z,3.30
2019-02-02T11:03:08.476Z,3.30
2019-02-02T11:05:48.999Z,3.30
2019-02-02T11:08:29.658Z,3.30
2019-02-02T11:11:10.538Z,3.30
2019-02-02T11:13:51.482Z,3.20
2019-02-02T11:16:32.311Z,3.20
2019-02-02T11:19:12.929Z,3.20
2019-02-02T11:21:53.778Z,3.20
2019-02-02T11:24:34.541Z,3.10
2019-02-02T11:27:15.451Z,3.00
2019-02-02T11:29:56.711Z,2.90
2019-02-02T11:35:33.736Z,2.70
2019-02-02T11:38:14.464Z,2.60
2019-02-02T11:40:55.229Z,2.60
2019-02-02T11:43:35.979Z,2.60
2019-02-02T11:46:16.958Z,2.60
2019-02-02T11:48:57.732Z,2.50
2019-02-02T11:51:38.612Z,2.50
2019-02-02T11:54:19.450Z,2.60
2019-02-02T11:57:00.048Z,2.70
2019-02-02T11:59:40.973Z,2.80
2019-02-02T12:02:21.909Z,2.90
2019-02-02T12:05:02.599Z,3.00
2019-02-02T12:07:43.091Z,3.10
2019-02-02T12:10:23.765Z,3.20
2019-02-02T12:13:04.468Z,3.20
2019-02-02T12:15:45.182Z,3.30
2019-02-02T12:18:25.987Z,3.30
2019-02-02T12:21:06.865Z,3.30
2019-02-02T12:23:47.683Z,3.30
2019-02-02T12:26:28.392Z,3.40
2019-02-02T12:29:09.067Z,3.40
2019-02-02T12:31:50.060Z,3.50
2019-02-02T12:34:30.742Z,3.60
2019-02-02T12:37:11.091Z,3.60
2019-02-02T12:39:51.553Z,3.60
2019-02-02T12:42:32.332Z,3.70
2019-02-02T12:45:12.900Z,3.60
2019-02-02T12:47:53.594Z,3.30
2019-02-02T12:50:34.502Z,3.10
2019-02-02T12:53:15.070Z,3.10
2019-02-02T12:55:56.096Z,3.20
2019-02-02T12:58:36.900Z,3.30
2019-02-02T13:01:18.083Z,3.30
2019-02-02T13:04:01.897Z,3.30
2019-02-02T13:06:42.617Z,3.40
2019-02-02T13:09:23.119Z,3.30
2019-02-02T13:12:03.876Z,3.30
2019-02-02T13:14:44.926Z,3.20
2019-02-02T13:17:25.791Z,3.20
2019-02-02T13:20:06.804Z,3.20
2019-02-02T13:22:48.043Z,3.10
2019-02-02T13:25:28.644Z,3.20
2019-02-02T13:28:09.723Z,3.10
2019-02-02T13:30:50.868Z,3.20
2019-02-02T13:33:31.312Z,3.20
2019-02-02T13:36:11.867Z,3.20
2019-02-02T13:38:52.578Z,3.20
2019-02-02T13:41:33.418Z,3.30
2019-02-02T13:44:14.534Z,3.40
2019-02-02T13:46:55.288Z,3.40
2019-02-02T13:49:35.825Z,3.40
2019-02-02T13:52:16.387Z,3.50
2019-02-02T13:54:57.089Z,3.40
2019-02-02T13:57:37.727Z,3.40
2019-02-02T14:00:18.540Z,3.40
2019-02-02T14:03:03.731Z,3.40
2019-02-02T14:05:42.036Z,3.40
2019-02-02T14:08:22.833Z,3.40
2019-02-02T14:11:03.560Z,3.40
2019-02-02T14:13:44.154Z,3.50
2019-02-02T14:16:24.556Z,3.60
2019-02-02T14:19:05.139Z,3.60
2019-02-02T14:21:45.864Z,3.50
2019-02-02T14:24:26.291Z,3.50
2019-02-02T14:27:07.327Z,3.50
2019-02-02T14:29:48.081Z,3.40
2019-02-02T14:32:28.883Z,3.30
2019-02-02T14:35:08.539Z,3.30
2019-02-02T14:37:56.586Z,3.20
2019-02-02T14:40:44.585Z,3.00
2019-02-02T14:43:32.551Z,3.10
2019-02-02T14:49:14.437Z,3.30
2019-02-02T14:52:02.421Z,3.30
2019-02-02T14:54:50.401Z,3.30
2019-02-02T14:57:38.370Z,3.30
2019-02-02T15:00:46.500Z,3.30
2019-02-02T15:03:34.499Z,3.20
2019-02-02T15:06:22.510Z,3.30
2019-02-02T15:09:10.804Z,3.30
2019-02-02T15:11:59.108Z,3.20
2019-02-02T15:14:39.499Z,3.00
2019-02-02T15:17:20.299Z,2.90
2019-02-02T15:20:00.814Z,2.80
2019-02-02T15:22:41.799Z,2.70
2019-02-02T15:25:22.339Z,2.60
2019-02-02T15:28:03.184Z,2.60
2019-02-02T15:30:44.205Z,2.60
2019-02-02T15:33:24.844Z,2.60
2019-02-02T15:36:05.494Z,2.80
2019-02-02T15:38:46.423Z,2.60
2019-02-02T15:41:27.227Z,2.50
2019-02-02T15:44:07.779Z,2.50
2019-02-02T15:46:49.304Z,2.50
2019-02-02T15:49:30.624Z,2.60
2019-02-02T15:52:11.138Z,2.70
2019-02-02T15:54:51.880Z,2.60
2019-02-02T15:57:33.044Z,2.60
2019-02-02T16:00:13.395Z,2.50
2019-02-02T16:02:54.156Z,2.50
2019-02-02T16:05:34.864Z,2.50
2019-02-02T16:08:15.380Z,2.60
2019-02-02T16:10:55.825Z,2.60
2019-02-02T16:13:36.227Z,2.60
2019-02-02T16:16:17.315Z,2.50
2019-02-02T16:18:57.691Z,2.60
2019-02-02T16:21:38.620Z,2.70
2019-02-02T16:24:19.232Z,2.80
2019-02-02T16:27:00.188Z,2.90
2019-02-02T16:29:40.855Z,3.00
2019-02-02T16:32:21.447Z,2.90
2019-02-02T16:35:02.000Z,3.00
2019-02-02T16:37:42.859Z,3.00
2019-02-02T16:40:23.603Z,3.10
2019-02-02T16:43:04.640Z,3.00
2019-02-02T16:45:45.424Z,2.90
2019-02-02T16:48:26.265Z,2.70
2019-02-02T16:51:07.259Z,2.60
2019-02-02T16:53:47.910Z,2.50
2019-02-02T16:56:29.102Z,2.60
2019-02-02T16:59:09.851Z,2.80
2019-02-02T17:01:51.247Z,2.90
2019-02-02T17:04:31.751Z,3.00
2019-02-02T17:07:12.503Z,3.00
2019-02-02T17:09:53.383Z,3.10
2019-02-02T17:12:33.959Z,3.20
2019-02-02T17:15:15.044Z,3.20
2019-02-02T17:17:55.363Z,3.10
2019-02-02T17:20:36.031Z,3.10
2019-02-02T17:23:16.695Z,3.00
2019-02-02T17:25:57.271Z,3.10
2019-02-02T17:28:37.974Z,3.20
2019-02-02T17:31:18.787Z,3.30
2019-02-02T17:33:59.861Z,3.30
2019-02-02T17:36:40.755Z,3.30
2019-02-02T17:39:21.150Z,3.30
2019-02-02T17:42:03.917Z,3.20
2019-02-02T17:44:44.807Z,3.20
2019-02-02T17:47:25.996Z,3.10
2019-02-02T17:50:06.559Z,3.00
2019-02-02T17:52:47.563Z,3.00
2019-02-02T17:55:28.615Z,2.90
2019-02-02T17:58:09.775Z,2.80
2019-02-02T18:00:53.021Z,2.80
2019-02-02T18:03:34.320Z,2.70
2019-02-02T18:06:14.684Z,2.70
2019-02-02T18:08:55.296Z,2.60
2019-02-02T18:11:35.791Z,2.60
2019-02-02T18:14:16.348Z,2.40
2019-02-02T18:16:57.002Z,2.40
2019-02-02T18:19:37.510Z,2.30
2019-02-02T18:22:18.300Z,2.30
2019-02-02T18:24:58.968Z,2.50
2019-02-02T18:27:39.406Z,2.60
2019-02-02T18:30:20.635Z,2.70
2019-02-02T18:33:01.433Z,2.80
2019-02-02T18:35:42.438Z,2.80
2019-02-02T18:38:22.990Z,2.70
2019-02-02T18:41:04.042Z,2.70
2019-02-02T18:43:44.392Z,2.80
2019-02-02T18:46:25.274Z,2.80
2019-02-02T18:49:06.203Z,2.80
2019-02-02T18:51:47.477Z,2.80
2019-02-02T18:54:28.071Z,2.80
2019-02-02T18:57:08.649Z,3.00
2019-02-02T18:59:49.648Z,2.90
2019-02-02T19:02:30.511Z,2.80
2019-02-02T19:05:11.149Z,2.90
2019-02-02T19:07:52.100Z,3.00
2019-02-02T19:10:32.896Z,3.10
2019-02-02T19:13:13.547Z,3.00
2019-02-02T19:15:54.360Z,3.00
2019-02-02T19:18:35.023Z,2.90
2019-02-02T19:21:15.598Z,2.90
2019-02-02T19:23:55.943Z,2.80
2019-02-02T19:26:36.652Z,2.70
2019-02-02T19:29:17.587Z,2.60
2019-02-02T19:31:58.241Z,2.50
2019-02-02T19:34:39.071Z,2.30
2019-02-02T19:37:21.185Z,2.20
2019-02-02T19:40:02.391Z,2.20
2019-02-02T19:42:43.223Z,2.30
2019-02-02T19:45:24.435Z,2.30
2019-02-02T19:48:05.436Z,2.30
2019-02-02T19:50:45.868Z,2.20
2019-02-02T19:53:26.655Z,2.30
2019-02-02T19:56:06.352Z,2.40
2019-02-02T19:58:54.678Z,2.50
2019-02-02T20:01:42.663Z,2.40
2019-02-02T20:04:30.883Z,2.40
2019-02-02T20:07:18.849Z,2.50
2019-02-02T20:10:07.706Z,2.70
2019-02-02T20:12:48.045Z,2.70
2019-02-02T20:15:28.939Z,2.80
2019-02-02T20:18:10.700Z,2.90
2019-02-02T20:20:51.302Z,2.80
2019-02-02T20:23:34.905Z,2.70
2019-02-02T20:26:14.283Z,2.60
2019-02-02T20:28:54.851Z,2.40
2019-02-02T20:31:35.430Z,2.40
2019-02-02T20:34:15.983Z,2.50
2019-02-02T20:36:57.228Z,2.70
2019-02-02T20:39:37.657Z,2.80
2019-02-02T20:42:18.434Z,2.90
2019-02-02T20:44:58.905Z,2.90
2019-02-02T20:47:39.671Z,3.00
2019-02-02T20:50:20.303Z,3.10
2019-02-02T20:53:01.481Z,3.10
2019-02-02T20:55:42.111Z,3.00
2019-02-02T20:58:22.877Z,3.00
2019-02-02T21:01:03.550Z,3.10
2019-02-02T21:03:44.188Z,3.20
2019-02-02T21:06:25.043Z,3.10
2019-02-02T21:09:05.519Z,3.10
2019-02-02T21:11:56.720Z,3.10
2019-02-02T21:14:29.144Z,3.00
2019-02-02T21:17:09.747Z,3.10
2019-02-02T21:19:50.127Z,3.10
2019-02-02T21:22:30.871Z,3.10
2019-02-02T21:25:11.544Z,3.10
2019-02-02T21:27:52.350Z,3.20
2019-02-02T21:30:33.228Z,3.20
2019-02-02T21:33:14.195Z,3.00
2019-02-02T21:36:03.693Z,2.90
2019-02-02T21:38:37.795Z,2.90
2019-02-02T21:41:18.704Z,2.90
2019-02-02T21:43:59.162Z,2.90
2019-02-02T21:46:39.839Z,3.00
2019-02-02T21:49:20.826Z,2.90
2019-02-02T21:52:01.627Z,2.90
2019-02-02T21:54:42.268Z,3.00
2019-02-02T21:57:23.013Z,3.10
2019-02-02T22:00:03.851Z,3.10
2019-02-02T22:02:44.731Z,3.20
2019-02-02T22:05:25.256Z,3.20
2019-02-02T22:08:05.970Z,3.20
2019-02-02T22:10:47.187Z,3.20
2019-02-02T22:13:27.756Z,3.20
2019-02-02T22:16:08.698Z,3.20
2019-02-02T22:18:50.203Z,3.20
2019-02-02T22:21:31.404Z,3.10
2019-02-02T22:24:12.727Z,3.00
2019-02-02T22:26:53.294Z,3.00
2019-02-02T22:29:33.774Z,3.10
2019-02-02T22:32:14.556Z,3.00
2019-02-02T22:34:55.112Z,3.00
2019-02-02T22:37:35.627Z,3.00
2019-02-02T22:40:16.082Z,3.00
2019-02-02T22:42:56.817Z,3.00
2019-02-02T22:45:37.159Z,3.00
2019-02-02T22:48:18.032Z,2.90
2019-02-02T22:50:58.697Z,2.90
2019-02-02T22:53:39.212Z,2.80
2019-02-02T22:56:20.058Z,2.70
2019-02-02T22:59:00.849Z,2.80
2019-02-02T23:01:42.067Z,2.80
2019-02-02T23:04:22.820Z,2.80
2019-02-02T23:07:03.898Z,2.80
2019-02-02T23:09:45.012Z,2.80
2019-02-02T23:12:25.631Z,2.80
2019-02-02T23:15:06.471Z,2.70
2019-02-02T23:17:47.248Z,2.70
2019-02-02T23:20:28.019Z,2.70
2019-02-02T23:23:08.736Z,2.70
2019-02-02T23:25:49.423Z,2.70
2019-02-02T23:28:30.266Z,2.60
2019-02-02T23:31:11.267Z,2.70
2019-02-02T23:33:53.036Z,2.70
2019-02-02T23:36:33.628Z,2.60
2019-02-02T23:39:14.724Z,2.70
2019-02-02T23:41:55.813Z,2.70
2019-02-02T23:44:36.751Z,2.70
2019-02-02T23:47:17.735Z,2.60
2019-02-02T23:49:58.544Z,2.60
2019-02-02T23:52:38.979Z,2.70
2019-02-02T23:55:19.327Z,2.60
2019-02-02T23:58:00.191Z,2.60
